Time;durP1;ratioP1;P1;durP2;ratioP2;P2;SDS_P1;SDS_P2;PMS_P1;PMS_P2;Temp;Humidity;BMP_temperature;BMP_pressure;BME280_temperature;BME280_humidity;BME280_pressure;Samples;Min_cycle;Max_cycle;Signal;HPM_P1;HPM_P2
2024/02/20 00:01:32;;;;;;;11.05;2.63;;;9.60;99.90;;;;;;4991442;28;20183;-74
2024/02/20 00:03:58;;;;;;;14.77;3.17;;;9.60;99.90;;;;;;4993091;28;20551;-74
2024/02/20 00:06:23;;;;;;;9.60;3.97;;;9.60;99.90;;;;;;4998080;28;20203;-75
2024/02/20 00:08:49;;;;;;;14.20;3.20;;;9.50;99.90;;;;;;5011847;28;20185;-75
2024/02/20 00:11:15;;;;;;;13.53;3.90;;;9.50;99.90;;;;;;4997960;28;20179;-74
2024/02/20 00:13:40;;;;;;;9.23;3.00;;;9.50;99.90;;;;;;4999400;28;20611;-75
2024/02/20 00:16:06;;;;;;;12.00;2.73;;;9.40;99.90;;;;;;5001088;28;20194;-75
2024/02/20 00:18:32;;;;;;;10.73;2.67;;;9.40;99.90;;;;;;5001088;28;20645;-75
2024/02/20 00:20:58;;;;;;;14.18;3.67;;;9.40;99.90;;;;;;5017221;28;20179;-74
2024/02/20 00:23:24;;;;;;;16.55;3.58;;;9.40;99.90;;;;;;5016107;28;20186;-75
2024/02/20 00:25:53;;;;;;;9.63;2.00;;;9.30;99.90;;;;;;5001880;28;20266;-75
2024/02/20 00:28:19;;;;;;;12.15;2.97;;;9.30;99.90;;;;;;5005964;28;20175;-75
2024/02/20 00:30:45;;;;;;;10.90;2.83;;;9.30;99.90;;;;;;4998487;28;20199;-75
2024/02/20 00:33:11;;;;;;;15.90;3.30;;;9.30;99.90;;;;;;5005605;28;20178;-75
2024/02/20 00:35:37;;;;;;;14.35;2.80;;;9.30;99.90;;;;;;5020791;28;20640;-75
2024/02/20 00:38:03;;;;;;;11.15;2.40;;;9.30;99.90;;;;;;5002490;28;20186;-75
2024/02/20 00:40:29;;;;;;;12.40;3.10;;;9.30;99.90;;;;;;5001749;28;20543;-75
2024/02/20 00:42:55;;;;;;;7.30;2.57;;;9.30;99.90;;;;;;4982327;28;20630;-75
2024/02/20 00:45:21;;;;;;;10.13;3.03;;;9.30;99.90;;;;;;5000481;28;20217;-75
2024/02/20 00:47:47;;;;;;;7.70;2.40;;;9.20;99.90;;;;;;4996997;28;20175;-74
2024/02/20 00:50:12;;;;;;;9.80;3.00;;;9.20;99.90;;;;;;5004881;28;20229;-74
2024/02/20 00:52:38;;;;;;;7.47;2.63;;;9.20;99.90;;;;;;5008608;28;20175;-75
2024/02/20 00:55:05;;;;;;;11.40;2.90;;;9.20;99.90;;;;;;4994483;28;20302;-74
2024/02/20 00:57:31;;;;;;;9.82;2.67;;;9.20;99.90;;;;;;4995424;28;20736;-75
2024/02/20 00:59:58;;;;;;;12.23;2.80;;;9.20;99.90;;;;;;4994902;28;20183;-75
2024/02/20 01:02:23;;;;;;;18.85;2.63;;;9.20;99.90;;;;;;4995393;28;20175;-75
2024/02/20 01:04:49;;;;;;;10.70;3.43;;;9.20;99.90;;;;;;4992387;28;20202;-74
2024/02/20 01:07:15;;;;;;;14.00;3.13;;;9.20;99.90;;;;;;4990671;28;20242;-75
2024/02/20 01:09:41;;;;;;;10.33;2.60;;;9.20;99.90;;;;;;5002168;28;20604;-74
2024/02/20 01:12:07;;;;;;;9.73;3.57;;;9.10;99.90;;;;;;4989585;28;20203;-74
2024/02/20 01:14:33;;;;;;;9.48;2.45;;;9.10;99.90;;;;;;4989509;28;20183;-74
2024/02/20 01:16:59;;;;;;;7.00;2.30;;;9.10;99.90;;;;;;4990461;28;20195;-74
2024/02/20 01:19:24;;;;;;;10.73;2.90;;;9.10;99.90;;;;;;5005112;28;20568;-74
2024/02/20 01:21:50;;;;;;;12.03;3.20;;;9.10;99.90;;;;;;4992607;28;20179;-75
2024/02/20 01:24:16;;;;;;;13.33;3.47;;;9.10;99.90;;;;;;4993985;28;20728;-76
2024/02/20 01:26:43;;;;;;;14.63;2.58;;;9.00;99.90;;;;;;4982458;28;20257;-76
2024/02/20 01:29:08;;;;;;;6.63;2.45;;;9.00;99.90;;;;;;4992209;28;20193;-75
2024/02/20 01:31:35;;;;;;;7.77;2.17;;;9.10;99.90;;;;;;4993943;28;20175;-76
2024/02/20 01:34:02;;;;;;;15.75;2.78;;;9.10;99.90;;;;;;4992662;28;21008;-75
2024/02/20 01:36:28;;;;;;;12.90;2.72;;;9.10;99.90;;;;;;4993753;28;20202;-76
2024/02/20 01:38:55;;;;;;;15.98;3.03;;;9.10;99.90;;;;;;4975865;28;20182;-76
2024/02/20 01:41:21;;;;;;;10.85;2.95;;;9.20;99.90;;;;;;4992417;28;20183;-75
2024/02/20 01:43:48;;;;;;;15.23;2.67;;;9.30;99.90;;;;;;4991571;28;20179;-75
2024/02/20 01:46:22;;;;;;;20.77;2.60;;;9.30;99.90;;;;;;4976116;28;20210;-75
2024/02/20 01:48:49;;;;;;;8.07;2.20;;;9.40;99.90;;;;;;4991986;28;20266;-75
2024/02/20 01:51:16;;;;;;;12.02;2.17;;;9.40;99.90;;;;;;4992302;28;20221;-75
2024/02/20 01:53:43;;;;;;;10.32;2.65;;;9.50;99.90;;;;;;4992205;28;20194;-75
2024/02/20 01:56:13;;;;;;;10.48;3.10;;;9.50;99.90;;;;;;4993339;28;20211;-75
2024/02/20 01:58:40;;;;;;;9.73;2.45;;;9.60;99.90;;;;;;4991603;28;20179;-75
2024/02/20 02:01:05;;;;;;;10.45;2.45;;;9.60;99.90;;;;;;4993378;28;20229;-75
2024/02/20 02:03:32;;;;;;;12.60;2.83;;;9.60;99.90;;;;;;4993323;28;20641;-76
2024/02/20 02:05:58;;;;;;;7.22;2.75;;;9.60;99.90;;;;;;4991191;28;20760;-76
2024/02/20 02:08:24;;;;;;;12.93;2.63;;;9.60;99.90;;;;;;4992181;28;20269;-76
2024/02/20 02:10:49;;;;;;;17.60;5.23;;;9.60;99.90;;;;;;4993120;28;20175;-76
2024/02/20 02:13:15;;;;;;;13.10;2.77;;;9.60;99.90;;;;;;5008004;28;20625;-76
2024/02/20 02:15:41;;;;;;;17.60;2.80;;;9.60;99.90;;;;;;4992886;28;20203;-76
2024/02/20 02:18:07;;;;;;;15.32;3.50;;;9.60;99.90;;;;;;4992609;28;20222;-76
2024/02/20 02:20:33;;;;;;;7.17;2.03;;;9.60;99.90;;;;;;4999713;28;20222;-75
2024/02/20 02:22:58;;;;;;;10.93;3.00;;;9.60;99.90;;;;;;4991842;28;20175;-75
2024/02/20 02:25:25;;;;;;;9.83;2.57;;;9.60;99.90;;;;;;4992306;28;20709;-74
2024/02/20 02:27:52;;;;;;;12.68;2.88;;;9.60;99.90;;;;;;4991914;28;20586;-74
2024/02/20 02:30:18;;;;;;;14.70;2.60;;;9.60;99.90;;;;;;4992428;28;20177;-74
2024/02/20 02:32:44;;;;;;;10.77;2.60;;;9.60;99.90;;;;;;4992294;28;20183;-75
2024/02/20 02:35:10;;;;;;;10.53;3.17;;;9.60;99.90;;;;;;4991326;28;20183;-75
2024/02/20 02:37:36;;;;;;;9.48;3.55;;;9.60;99.90;;;;;;4991424;28;20195;-75
2024/02/20 02:40:04;;;;;;;10.95;2.50;;;9.60;99.90;;;;;;4991862;28;20191;-75
2024/02/20 02:42:30;;;;;;;10.85;3.10;;;9.60;99.90;;;;;;4992222;28;20335;-74
2024/02/20 02:44:56;;;;;;;12.32;2.47;;;9.60;99.90;;;;;;4992240;28;20552;-75
2024/02/20 02:47:22;;;;;;;9.20;3.97;;;9.60;99.90;;;;;;4992380;28;20195;-74
2024/02/20 02:49:47;;;;;;;13.30;3.07;;;9.60;99.90;;;;;;4990836;28;20258;-74
2024/02/20 02:52:13;;;;;;;11.20;3.10;;;9.60;99.90;;;;;;4974744;28;20238;-75
2024/02/20 02:54:39;;;;;;;17.33;4.30;;;9.60;99.90;;;;;;4974803;28;20183;-75
2024/02/20 02:57:06;;;;;;;9.60;3.20;;;9.50;99.90;;;;;;4990556;28;20261;-74
2024/02/20 02:59:32;;;;;;;9.98;3.72;;;9.50;99.90;;;;;;4990558;28;20179;-74
2024/02/20 03:01:57;;;;;;;9.43;3.80;;;9.50;99.90;;;;;;4990766;28;20530;-75
2024/02/20 03:04:23;;;;;;;16.20;5.20;;;9.50;99.90;;;;;;4991061;28;20192;-76
2024/02/20 03:06:50;;;;;;;13.83;4.03;;;9.40;99.90;;;;;;4992074;28;20195;-76
2024/02/20 03:09:18;;;;;;;9.25;3.90;;;9.40;99.90;;;;;;5006141;28;20187;-76
2024/02/20 03:11:43;;;;;;;12.63;4.50;;;9.40;99.90;;;;;;4990993;28;20581;-76
2024/02/20 03:14:13;;;;;;;14.60;3.80;;;9.40;99.90;;;;;;4974539;28;20210;-76
2024/02/20 03:16:39;;;;;;;13.52;4.25;;;9.40;99.90;;;;;;4990341;28;20233;-76
2024/02/20 03:19:05;;;;;;;18.87;5.77;;;9.40;99.90;;;;;;4990035;28;20183;-76
2024/02/20 03:21:31;;;;;;;18.93;5.03;;;9.40;99.90;;;;;;4991058;28;20602;-76
2024/02/20 03:23:57;;;;;;;12.70;4.70;;;9.40;99.90;;;;;;4991592;28;20716;-76
2024/02/20 03:26:22;;;;;;;17.30;4.17;;;9.40;99.90;;;;;;4987979;28;20218;-76
2024/02/20 03:28:48;;;;;;;16.47;6.10;;;9.50;99.90;;;;;;4989929;28;20253;-76
2024/02/20 03:31:14;;;;;;;11.97;5.53;;;9.50;99.90;;;;;;5012503;28;20193;-75
2024/02/20 03:33:40;;;;;;;13.70;3.90;;;9.50;99.90;;;;;;4997786;28;20625;-76
2024/02/20 03:36:07;;;;;;;14.13;5.83;;;9.60;99.90;;;;;;4998311;28;20289;-75
2024/02/20 03:38:32;;;;;;;12.75;4.60;;;9.60;99.90;;;;;;5001293;28;20178;-75
2024/02/20 03:40:58;;;;;;;16.47;4.63;;;9.60;99.90;;;;;;4991345;28;20514;-75
2024/02/20 03:43:24;;;;;;;11.00;4.60;;;9.60;99.90;;;;;;4991436;28;20186;-75
2024/02/20 03:45:50;;;;;;;13.38;5.80;;;9.60;99.90;;;;;;4992038;28;20217;-75
2024/02/20 03:48:15;;;;;;;13.20;4.87;;;9.60;99.90;;;;;;4990257;28;20543;-75
2024/02/20 03:50:41;;;;;;;15.20;4.77;;;9.60;99.90;;;;;;4992115;28;20278;-74
2024/02/20 03:53:07;;;;;;;11.07;5.73;;;9.60;99.90;;;;;;4986490;28;20226;-75
2024/02/20 03:55:32;;;;;;;11.37;4.23;;;9.60;99.90;;;;;;4990653;28;20171;-75
2024/02/20 03:57:59;;;;;;;11.10;4.70;;;9.60;99.90;;;;;;5005122;28;20221;-75
2024/02/20 04:00:25;;;;;;;14.60;5.18;;;9.60;99.90;;;;;;5000829;28;20261;-75
2024/02/20 04:02:53;;;;;;;13.77;4.53;;;9.50;99.90;;;;;;4991776;28;20641;-75
2024/02/20 04:05:19;;;;;;;11.00;4.72;;;9.50;99.90;;;;;;4989918;28;20202;-75
2024/02/20 04:07:46;;;;;;;10.20;5.23;;;9.50;99.90;;;;;;4990454;28;20210;-75
2024/02/20 04:10:13;;;;;;;18.00;5.95;;;9.50;99.90;;;;;;5005030;28;20602;-75
2024/02/20 04:12:40;;;;;;;12.35;4.80;;;9.50;99.90;;;;;;5007123;28;20708;-75
2024/02/20 04:15:07;;;;;;;15.30;5.47;;;9.50;99.90;;;;;;4991486;28;20183;-75
2024/02/20 04:17:33;;;;;;;10.10;5.28;;;9.50;99.90;;;;;;4989505;28;20199;-75
2024/02/20 04:20:10;;;;;;;11.70;5.45;;;9.50;99.90;;;;;;4989453;28;20177;-75
2024/02/20 04:22:39;;;;;;;11.88;3.97;;;9.50;99.90;;;;;;4991851;28;20182;-75
2024/02/20 04:25:06;;;;;;;12.98;5.50;;;9.50;99.90;;;;;;4991677;28;20199;-76
2024/02/20 04:27:32;;;;;;;14.38;5.65;;;9.60;99.90;;;;;;4991183;28;20195;-76
2024/02/20 04:29:58;;;;;;;16.10;4.85;;;9.60;99.90;;;;;;4991118;28;20576;-76
2024/02/20 04:32:23;;;;;;;17.10;5.03;;;9.60;99.90;;;;;;5008586;28;20267;-76
2024/02/20 04:34:50;;;;;;;16.73;5.17;;;9.60;99.90;;;;;;5011032;28;20190;-76
2024/02/20 04:37:16;;;;;;;16.25;5.88;;;9.60;99.90;;;;;;5009959;28;20678;-75
2024/02/20 04:39:45;;;;;;;10.65;5.05;;;9.70;99.90;;;;;;4995190;28;20173;-75
2024/02/20 04:42:11;;;;;;;16.83;6.28;;;9.70;99.90;;;;;;5003906;28;20181;-76
2024/02/20 04:44:37;;;;;;;14.65;6.20;;;9.60;99.90;;;;;;5017505;28;20178;-75
2024/02/20 04:47:06;;;;;;;11.53;5.03;;;9.60;99.90;;;;;;5009808;28;20193;-76
2024/02/20 04:49:33;;;;;;;14.15;6.00;;;9.60;99.90;;;;;;5009010;28;20175;-76
2024/02/20 04:51:59;;;;;;;11.10;6.05;;;9.60;99.90;;;;;;5006540;28;20213;-76
2024/02/20 04:54:24;;;;;;;13.85;5.25;;;9.60;99.90;;;;;;5000405;28;20175;-76
2024/02/20 04:56:50;;;;;;;12.17;5.40;;;9.60;99.90;;;;;;5002073;28;20194;-75
2024/02/20 04:59:18;;;;;;;13.93;6.67;;;9.60;99.90;;;;;;4993876;28;20195;-75
2024/02/20 05:01:44;;;;;;;15.00;5.75;;;9.60;99.90;;;;;;5001848;28;20266;-75
2024/02/20 05:04:10;;;;;;;10.57;5.20;;;9.60;99.90;;;;;;4995184;28;20263;-76
2024/02/20 05:06:36;;;;;;;17.02;6.60;;;9.60;99.90;;;;;;4996141;28;20282;-75
2024/02/20 05:09:02;;;;;;;15.30;5.30;;;9.60;99.90;;;;;;4981295;28;20719;-76
2024/02/20 05:11:27;;;;;;;8.20;5.50;;;9.50;99.90;;;;;;5015219;28;20178;-76
2024/02/20 05:13:54;;;;;;;13.90;6.07;;;9.50;99.90;;;;;;5001241;28;20569;-76
2024/02/20 05:16:20;;;;;;;14.10;5.65;;;9.50;99.90;;;;;;4998163;28;20199;-75
2024/02/20 05:18:46;;;;;;;13.47;6.40;;;9.50;99.90;;;;;;5016177;28;20182;-75
2024/02/20 05:21:11;;;;;;;9.63;5.70;;;9.40;99.90;;;;;;5014826;28;20569;-75
2024/02/20 05:23:37;;;;;;;23.27;5.90;;;9.40;99.90;;;;;;5014037;28;20258;-75
2024/02/20 05:26:03;;;;;;;10.80;5.40;;;9.40;99.90;;;;;;5016643;28;20198;-75
2024/02/20 05:28:29;;;;;;;15.33;7.43;;;9.40;99.90;;;;;;5016444;28;20208;-75
2024/02/20 05:30:55;;;;;;;10.13;6.57;;;9.40;99.90;;;;;;5015637;28;20189;-76
2024/02/20 05:33:21;;;;;;;11.50;5.88;;;9.40;99.90;;;;;;5012196;28;20175;-76
2024/02/20 05:35:46;;;;;;;16.77;7.50;;;9.30;99.90;;;;;;5018457;28;20201;-76
2024/02/20 05:38:14;;;;;;;15.43;6.37;;;9.30;99.90;;;;;;5021361;28;20185;-76
2024/02/20 05:40:39;;;;;;;15.65;6.40;;;9.30;99.90;;;;;;4993650;28;20286;-77
2024/02/20 05:43:05;;;;;;;7.27;4.43;;;9.30;99.90;;;;;;4976124;28;20831;-77
2024/02/20 05:45:33;;;;;;;13.97;5.70;;;9.30;99.90;;;;;;4987943;28;20210;-77
2024/02/20 05:48:00;;;;;;;14.82;6.63;;;9.30;99.90;;;;;;4992824;28;20162;-77
2024/02/20 05:50:28;;;;;;;13.07;5.95;;;9.30;99.90;;;;;;4991812;28;20186;-77
2024/02/20 05:52:55;;;;;;;15.55;6.82;;;9.20;99.90;;;;;;4972337;28;20180;-76
2024/02/20 05:55:21;;;;;;;8.23;6.07;;;9.20;99.90;;;;;;5005310;28;20195;-76
2024/02/20 05:57:47;;;;;;;16.83;7.37;;;9.20;99.90;;;;;;4991623;28;20280;-76
2024/02/20 06:00:13;;;;;;;11.87;5.40;;;9.20;99.90;;;;;;4993035;28;20266;-76
2024/02/20 06:02:39;;;;;;;8.77;5.78;;;9.20;99.90;;;;;;4993340;28;20598;-74
2024/02/20 06:05:07;;;;;;;12.17;5.90;;;9.20;99.90;;;;;;4991894;28;20261;-73
2024/02/20 06:07:33;;;;;;;15.20;5.85;;;9.20;99.90;;;;;;4999368;28;20649;-74
2024/02/20 06:09:58;;;;;;;12.40;6.68;;;9.20;99.90;;;;;;4991471;28;20171;-73
2024/02/20 06:12:26;;;;;;;15.57;7.90;;;9.10;99.90;;;;;;4991868;28;20197;-74
2024/02/20 06:14:51;;;;;;;18.45;6.85;;;9.10;99.90;;;;;;4975817;28;20671;-75
2024/02/20 06:17:17;;;;;;;11.97;6.13;;;9.10;99.90;;;;;;4992139;28;20295;-74
2024/02/20 06:19:43;;;;;;;11.60;5.70;;;9.10;99.90;;;;;;4992213;28;20860;-74
2024/02/20 06:22:08;;;;;;;16.43;7.73;;;9.10;99.90;;;;;;4993147;28;20609;-73
2024/02/20 06:24:34;;;;;;;13.20;7.37;;;9.00;99.90;;;;;;4992704;28;20191;-73
2024/02/20 06:27:02;;;;;;;13.50;6.90;;;9.10;99.90;;;;;;4991509;28;20747;-73
2024/02/20 06:29:28;;;;;;;12.00;6.25;;;9.00;99.90;;;;;;4991650;28;20179;-74
2024/02/20 06:31:54;;;;;;;17.53;8.37;;;9.00;99.90;;;;;;4992931;28;20876;-73
2024/02/20 06:34:20;;;;;;;17.10;6.20;;;9.00;99.90;;;;;;4991535;28;20546;-73
2024/02/20 06:36:45;;;;;;;14.23;6.40;;;9.00;99.90;;;;;;4991446;28;20252;-73
2024/02/20 06:39:11;;;;;;;16.33;6.93;;;9.00;99.90;;;;;;4991945;28;21099;-73
2024/02/20 06:41:37;;;;;;;16.40;7.70;;;9.10;99.90;;;;;;5007281;28;20258;-76
2024/02/20 06:44:03;;;;;;;11.90;6.23;;;9.00;99.90;;;;;;4993941;28;20245;-76
2024/02/20 06:46:29;;;;;;;23.50;7.80;;;9.10;99.90;;;;;;4991720;28;20646;-76
2024/02/20 06:48:54;;;;;;;16.60;7.90;;;9.10;99.90;;;;;;4989782;28;20182;-76
2024/02/20 06:51:26;;;;;;;11.40;6.20;;;9.10;99.90;;;;;;4988058;28;20186;-76
2024/02/20 06:53:54;;;;;;;15.57;6.45;;;9.10;99.90;;;;;;4984828;28;20179;-76
2024/02/20 06:56:20;;;;;;;12.43;6.97;;;9.20;99.90;;;;;;4974262;28;20202;-76
2024/02/20 06:58:45;;;;;;;27.57;7.20;;;9.20;99.90;;;;;;4990032;28;20198;-76
2024/02/20 07:01:11;;;;;;;13.70;7.20;;;9.20;99.90;;;;;;4991764;28;20605;-76
2024/02/20 07:03:37;;;;;;;17.00;6.87;;;9.30;99.90;;;;;;4992002;28;20179;-76
2024/02/20 07:06:03;;;;;;;16.83;6.70;;;9.30;99.90;;;;;;4992698;28;20276;-76
2024/02/20 07:08:29;;;;;;;11.88;6.72;;;9.30;99.90;;;;;;4989096;28;20202;-76
2024/02/20 07:10:54;;;;;;;12.70;7.13;;;9.40;99.90;;;;;;4974046;28;20171;-76
2024/02/20 07:13:20;;;;;;;8.50;5.50;;;9.40;99.90;;;;;;4991907;28;20178;-76
2024/02/20 07:15:46;;;;;;;20.47;9.10;;;9.50;99.90;;;;;;4988922;28;20298;-76
2024/02/20 07:18:11;;;;;;;14.83;7.17;;;9.60;99.90;;;;;;4989451;28;20539;-76
2024/02/20 07:20:37;;;;;;;15.33;6.90;;;9.60;99.90;;;;;;4989859;28;20179;-76
2024/02/20 07:23:03;;;;;;;19.03;7.20;;;9.70;99.90;;;;;;4991663;28;20187;-76
2024/02/20 07:25:30;;;;;;;15.20;6.57;;;9.80;99.90;;;;;;4992367;28;20653;-76
2024/02/20 07:27:56;;;;;;;14.20;5.40;;;9.80;99.90;;;;;;4990821;28;20199;-76
2024/02/20 07:30:21;;;;;;;14.93;7.20;;;9.90;99.90;;;;;;4991399;28;20209;-76
2024/02/20 07:32:47;;;;;;;15.13;6.93;;;10.00;99.90;;;;;;4990617;28;20229;-76
2024/02/20 07:35:17;;;;;;;14.73;6.30;;;10.10;99.90;;;;;;4990570;28;20214;-76
2024/02/20 07:37:43;;;;;;;18.15;7.95;;;10.10;99.90;;;;;;4989780;28;20214;-77
2024/02/20 07:40:09;;;;;;;18.20;6.53;;;10.20;99.90;;;;;;4988982;28;20182;-76
2024/02/20 07:42:37;;;;;;;11.63;5.95;;;10.20;99.90;;;;;;4983743;28;20186;-76
2024/02/20 07:45:03;;;;;;;15.57;6.32;;;10.30;99.90;;;;;;4991307;28;20294;-76
2024/02/20 07:47:30;;;;;;;18.45;6.60;;;10.40;99.90;;;;;;4991308;28;20231;-76
2024/02/20 07:49:57;;;;;;;14.17;6.87;;;10.50;99.90;;;;;;4990601;28;20218;-76
2024/02/20 07:52:22;;;;;;;18.90;7.47;;;10.50;99.90;;;;;;4973947;28;20185;-76
2024/02/20 07:54:48;;;;;;;10.10;5.77;;;10.60;99.90;;;;;;4990703;28;20175;-74
2024/02/20 07:57:14;;;;;;;16.57;7.03;;;10.60;99.90;;;;;;4991245;28;20571;-75
2024/02/20 07:59:40;;;;;;;13.97;7.30;;;10.70;99.90;;;;;;4990249;28;20189;-75
2024/02/20 08:02:08;;;;;;;16.00;7.50;;;10.80;99.90;;;;;;4990854;28;20545;-75
2024/02/20 08:04:41;;;;;;;16.13;8.30;;;10.90;99.90;;;;;;4989669;28;20176;-75
2024/02/20 08:07:07;;;;;;;15.57;7.85;;;10.90;99.90;;;;;;5005477;28;20196;-76
2024/02/20 08:09:33;;;;;;;16.00;8.03;;;11.00;99.90;;;;;;4989097;28;20250;-76
2024/02/20 08:11:59;;;;;;;15.13;7.37;;;11.10;99.90;;;;;;4990851;28;20171;-76
2024/02/20 08:14:25;;;;;;;15.93;9.03;;;11.10;99.90;;;;;;4991117;28;20593;-76
2024/02/20 08:16:51;;;;;;;18.30;7.57;;;11.20;99.90;;;;;;4990867;28;20215;-76
2024/02/20 08:19:17;;;;;;;15.95;7.18;;;11.30;99.90;;;;;;5005780;28;20643;-76
2024/02/20 08:21:44;;;;;;;12.45;7.78;;;11.40;99.90;;;;;;4988680;28;20190;-76
2024/02/20 08:24:09;;;;;;;15.43;8.63;;;11.40;99.90;;;;;;4986762;28;20187;-76
2024/02/20 08:26:36;;;;;;;14.63;8.50;;;11.50;99.90;;;;;;4986510;28;20211;-76
2024/02/20 08:29:02;;;;;;;17.20;8.52;;;11.60;99.90;;;;;;4989471;28;20205;-76
2024/02/20 08:31:28;;;;;;;17.20;9.27;;;11.60;99.90;;;;;;4993531;28;20194;-76
2024/02/20 08:33:53;;;;;;;23.17;9.80;;;11.70;99.90;;;;;;4995666;28;20175;-76
2024/02/20 08:36:19;;;;;;;16.43;7.73;;;11.80;99.90;;;;;;4995065;28;20230;-76
2024/02/20 08:38:46;;;;;;;16.67;8.57;;;11.80;99.90;;;;;;4992751;28;20601;-76
2024/02/20 08:41:15;;;;;;;20.77;9.52;;;11.90;99.90;;;;;;4994572;28;20206;-76
2024/02/20 08:43:45;;;;;;;17.37;8.67;;;12.00;99.90;;;;;;4994459;28;20623;-76
2024/02/20 08:46:10;;;;;;;17.30;10.13;;;12.00;99.90;;;;;;4994580;28;20704;-76
2024/02/20 08:48:36;;;;;;;14.10;8.30;;;12.10;99.90;;;;;;5006448;28;20202;-76
2024/02/20 08:51:02;;;;;;;16.47;8.20;;;12.20;99.90;;;;;;4993393;28;20183;-76
2024/02/20 08:53:27;;;;;;;18.70;8.40;;;12.20;99.90;;;;;;4994694;28;20179;-76
2024/02/20 08:55:53;;;;;;;15.50;9.23;;;12.30;99.90;;;;;;4994283;28;20199;-77
2024/02/20 08:58:20;;;;;;;13.97;8.00;;;12.30;99.90;;;;;;4993549;28;20211;-76
2024/02/20 09:00:46;;;;;;;14.63;8.53;;;12.30;99.90;;;;;;4993207;28;20183;-76
2024/02/20 09:03:12;;;;;;;14.87;7.60;;;12.40;99.90;;;;;;4994148;28;21551;-76
2024/02/20 09:05:37;;;;;;;14.80;7.77;;;12.50;99.90;;;;;;4993038;28;20689;-76
2024/02/20 09:08:04;;;;;;;20.53;8.40;;;12.50;99.90;;;;;;4992647;28;21005;-76
2024/02/20 09:10:30;;;;;;;15.37;7.40;;;12.60;99.90;;;;;;4994048;28;20186;-76
2024/02/20 09:12:55;;;;;;;14.40;6.83;;;12.70;99.90;;;;;;4992099;28;20578;-76
2024/02/20 09:15:21;;;;;;;14.10;7.67;;;12.80;99.90;;;;;;4994108;28;20584;-76
2024/02/20 09:17:47;;;;;;;18.60;7.53;;;13.00;99.90;;;;;;4993942;28;20634;-76
2024/02/20 09:20:13;;;;;;;18.83;8.43;;;13.10;99.90;;;;;;5008878;28;20191;-76
2024/02/20 09:22:39;;;;;;;15.97;8.17;;;13.20;99.90;;;;;;4993443;28;20593;-76
2024/02/20 09:25:06;;;;;;;18.77;7.87;;;13.30;99.90;;;;;;4992386;28;20214;-76
2024/02/20 09:27:32;;;;;;;16.60;8.40;;;13.50;99.90;;;;;;4992391;28;20645;-76
2024/02/20 09:29:58;;;;;;;19.50;7.20;;;13.60;99.90;;;;;;4992164;28;20578;-76
2024/02/20 09:32:24;;;;;;;13.40;6.97;;;13.80;99.90;;;;;;5005601;28;20587;-77
2024/02/20 09:34:50;;;;;;;14.00;6.73;;;13.90;99.90;;;;;;5007866;28;20179;-76
2024/02/20 09:37:16;;;;;;;19.63;6.60;;;14.10;99.90;;;;;;4993847;28;20209;-77
2024/02/20 09:39:42;;;;;;;14.67;6.80;;;14.20;99.90;;;;;;4992960;28;20585;-77
2024/02/20 09:42:13;;;;;;;17.53;7.70;;;14.20;99.90;;;;;;4992109;28;20601;-76
2024/02/20 09:44:40;;;;;;;14.70;7.00;;;14.30;99.90;;;;;;4993373;28;20179;-76
2024/02/20 09:47:07;;;;;;;16.20;7.00;;;14.30;99.90;;;;;;4992113;28;20629;-75
2024/02/20 09:49:34;;;;;;;20.73;6.70;;;14.40;99.90;;;;;;4991640;28;20593;-75
2024/02/20 09:52:03;;;;;;;10.20;5.73;;;14.50;99.90;;;;;;4989795;28;20706;-75
2024/02/20 09:54:33;;;;;;;17.47;7.63;;;14.50;99.90;;;;;;4992088;28;20995;-75
2024/02/20 09:57:00;;;;;;;15.83;7.10;;;14.50;99.90;;;;;;4993065;28;20612;-75
2024/02/20 09:59:26;;;;;;;12.87;6.57;;;14.70;99.90;;;;;;4991598;28;20590;-75
2024/02/20 10:01:55;;;;;;;12.97;5.93;;;14.80;99.90;;;;;;4975481;28;20589;-75
2024/02/20 10:04:22;;;;;;;16.90;7.80;;;14.90;99.90;;;;;;4991494;28;20226;-75
2024/02/20 10:06:48;;;;;;;14.23;6.20;;;15.00;99.90;;;;;;4993084;28;20649;-75
2024/02/20 10:09:14;;;;;;;20.63;6.60;;;15.00;99.90;;;;;;4993249;28;20597;-75
2024/02/20 10:11:40;;;;;;;13.00;6.10;;;15.10;99.90;;;;;;4998036;28;20175;-75
2024/02/20 10:14:07;;;;;;;9.30;5.50;;;15.10;99.90;;;;;;4998669;28;20657;-75
2024/02/20 10:16:32;;;;;;;15.97;6.47;;;15.10;99.90;;;;;;4994695;28;20624;-75
2024/02/20 10:19:04;;;;;;;10.90;5.30;;;15.20;99.90;;;;;;4992465;28;20962;-75
2024/02/20 10:21:30;;;;;;;11.43;5.27;;;15.20;99.90;;;;;;4993291;28;20183;-75
2024/02/20 10:24:03;;;;;;;15.10;5.37;;;15.20;99.90;;;;;;4975316;28;20594;-75
2024/02/20 10:26:30;;;;;;;13.20;5.20;;;15.20;99.90;;;;;;4992141;28;21087;-76
2024/02/20 10:28:58;;;;;;;11.27;5.53;;;15.20;99.90;;;;;;4992083;28;20578;-76
2024/02/20 10:31:25;;;;;;;14.10;5.20;;;15.10;99.90;;;;;;4992602;28;20942;-76
2024/02/20 10:33:54;;;;;;;15.20;5.00;;;15.10;99.90;;;;;;4992571;28;20948;-76
2024/02/20 10:36:23;;;;;;;10.33;5.00;;;15.10;99.90;;;;;;4992608;28;20622;-76
2024/02/20 10:38:50;;;;;;;13.87;5.20;;;15.00;99.90;;;;;;4991633;28;20598;-76
2024/02/20 10:41:18;;;;;;;12.40;5.60;;;15.00;99.90;;;;;;4991350;28;20634;-76
2024/02/20 10:43:46;;;;;;;12.90;4.50;;;15.00;99.90;;;;;;4992303;28;21001;-76
2024/02/20 10:46:12;;;;;;;10.20;5.10;;;15.00;99.90;;;;;;5006937;28;20712;-76
2024/02/20 10:48:39;;;;;;;11.90;4.20;;;15.00;99.90;;;;;;5003513;28;20579;-76
2024/02/20 10:51:06;;;;;;;13.03;4.80;;;15.00;99.90;;;;;;4999377;28;20601;-76
2024/02/20 10:53:33;;;;;;;9.73;4.40;;;15.00;99.90;;;;;;4987095;28;20571;-76
2024/02/20 10:56:02;;;;;;;14.13;4.90;;;15.00;99.90;;;;;;5005510;28;20611;-76
2024/02/20 10:58:29;;;;;;;15.00;4.80;;;14.90;99.90;;;;;;4990487;28;20664;-77
2024/02/20 11:00:56;;;;;;;16.23;4.70;;;15.00;99.90;;;;;;4991873;28;20578;-76
2024/02/20 11:03:23;;;;;;;14.73;5.70;;;15.00;99.90;;;;;;5004455;28;20599;-76
2024/02/20 11:05:52;;;;;;;9.90;4.60;;;14.90;99.90;;;;;;4989948;28;20641;-76
2024/02/20 11:08:27;;;;;;;19.90;5.50;;;14.90;99.90;;;;;;4990159;28;21159;-76
2024/02/20 11:10:53;;;;;;;12.63;5.10;;;14.90;99.90;;;;;;4991687;28;20633;-76
2024/02/20 11:13:25;;;;;;;11.67;4.33;;;14.80;99.90;;;;;;4990606;28;21225;-76
2024/02/20 11:15:51;;;;;;;9.13;4.27;;;14.80;99.90;;;;;;5006965;28;20226;-76
2024/02/20 11:18:20;;;;;;;11.90;5.60;;;14.80;99.90;;;;;;4974005;28;21222;-76
2024/02/20 11:20:46;;;;;;;14.47;4.70;;;14.80;99.90;;;;;;4990691;28;20653;-76
2024/02/20 11:23:12;;;;;;;11.70;5.27;;;14.90;99.90;;;;;;4991366;28;20625;-76
2024/02/20 11:25:39;;;;;;;9.77;4.27;;;14.80;99.90;;;;;;4990780;28;20666;-77
2024/02/20 11:28:15;;;;;;;13.77;4.93;;;14.80;99.90;;;;;;4988142;28;20182;-76
2024/02/20 11:30:41;;;;;;;6.93;3.80;;;14.80;99.90;;;;;;4994633;28;20921;-77
2024/02/20 11:33:15;;;;;;;17.07;6.50;;;14.90;99.90;;;;;;4996032;28;20582;-77
2024/02/20 11:35:43;;;;;;;11.60;4.50;;;14.80;99.90;;;;;;4997334;28;20593;-76
2024/02/20 11:38:11;;;;;;;15.43;5.43;;;14.80;99.90;;;;;;5004355;28;20578;-76
2024/02/20 11:40:37;;;;;;;6.90;3.30;;;14.90;99.90;;;;;;4992585;28;20593;-76
2024/02/20 11:43:05;;;;;;;11.90;3.60;;;14.90;99.90;;;;;;4993970;28;20644;-76
2024/02/20 11:45:33;;;;;;;20.63;9.03;;;15.00;99.90;;;;;;4975076;28;20642;-76
2024/02/20 11:48:13;;;;;;;17.10;6.60;;;14.90;99.90;;;;;;4980580;28;20581;-77
2024/02/20 11:50:41;;;;;;;14.67;6.33;;;14.90;99.90;;;;;;4991695;28;20590;-76
2024/02/20 11:53:17;;;;;;;12.03;5.50;;;15.00;99.90;;;;;;4990881;28;20694;-76
2024/02/20 11:55:53;;;;;;;14.70;4.80;;;15.10;99.90;;;;;;5006356;28;21513;-76
2024/02/20 11:58:23;;;;;;;11.73;4.07;;;15.10;99.90;;;;;;4996050;28;20671;-76
2024/02/20 12:00:51;;;;;;;10.10;4.03;;;15.20;99.90;;;;;;4992169;28;20586;-76
2024/02/20 12:03:30;;;;;;;13.70;4.80;;;15.20;99.90;;;;;;4995288;28;20581;-76
2024/02/20 12:06:04;;;;;;;12.03;4.50;;;15.20;99.90;;;;;;5010778;28;20675;-76
2024/02/20 12:08:41;;;;;;;12.07;3.63;;;15.30;99.90;;;;;;5005645;28;20617;-76
2024/02/20 12:11:09;;;;;;;15.40;5.20;;;15.40;99.90;;;;;;4997690;28;20641;-76
2024/02/20 12:13:34;;;;;;;10.00;4.30;;;15.40;99.90;;;;;;4998743;28;20620;-75
2024/02/20 12:16:01;;;;;;;13.00;3.73;;;15.50;99.90;;;;;;4999573;28;20626;-76
2024/02/20 12:18:31;;;;;;;13.87;4.33;;;15.50;99.90;;;;;;4992424;28;20640;-76
2024/02/20 12:21:08;;;;;;;13.23;4.50;;;15.50;99.90;;;;;;5006063;28;20590;-76
2024/02/20 12:23:36;;;;;;;20.50;6.43;;;15.60;99.90;;;;;;5014740;28;20625;-75
2024/02/20 12:26:12;;;;;;;11.30;4.53;;;15.70;99.90;;;;;;4994126;28;20656;-76
2024/02/20 12:28:40;;;;;;;14.70;4.30;;;15.70;99.90;;;;;;4990690;28;20608;-75
2024/02/20 12:31:07;;;;;;;9.40;4.47;;;15.80;99.90;;;;;;5005959;28;20585;-75
2024/02/20 12:33:33;;;;;;;15.60;4.77;;;15.80;99.90;;;;;;4989372;28;21225;-75
2024/02/20 12:35:59;;;;;;;7.57;3.97;;;15.80;99.90;;;;;;4990454;28;20664;-76
2024/02/20 12:38:31;;;;;;;14.73;3.87;;;15.80;99.90;;;;;;4988448;28;21150;-76
2024/02/20 12:40:57;;;;;;;12.17;4.00;;;15.80;99.90;;;;;;5005897;28;20193;-76